الصفحة الرئيسية
METAR-TAF:

METAR-TAF

مطار :

Bocas Town, بنما

دائرة عرض: 09-21N, خط طول: 082-15W, ارتفاع: 3 متر

مراقبة الطقس الحالي

تاريخ ووقت الإصدار 7ساعات و 10 دقيقة قبل الساعة 22:00UTC
ريح 6 عقدة من الشمال الشرقي
درجة الحرارة 29°درجة مئوية
الرطوبة 79%
ضغط 1011 hPa
الرؤية 10 كم أو أكثر
غيوم قليلة على ارتفاع 2000 قدم
غيوم متفرقة على ارتفاع 8000 قدم

METAR: MPBO 282200Z 05006KT 9999 FEW020 SCT080 29/25 Q1011

زمن: 00:10 (05:10 UTC)


TAF: مفقودة

أرصاد الطقس والتوقعات من أكثر من 4000 مطار (تقارير الطقس للمطار METAR والتنبؤ بالطقس بالمطارTAF).

المحطات المتاحة هي النقط الصفراء والحمراء على الخريطة.

حرك المؤشر فوق النقطة لمعرفة اسم المحطة.

ثم انقر لمعرفة أرصاد وتوقعات الطقس.

لتغيير الخارطة: اضغط على الأزرار الخضراء مع رمز الصليب الأسود للتكبير. على الزر الأخضر مع شرطة للتصغير، أو على الأسهم الخضراء للخرائط المجاورة.


METAR-TAF: